Washington Depot, Connecticut
Current Conditions -  °F | °C
As of 4:15 AM on Friday 24 Oct 2014 (Local Time) from KOXC Reporting Station
Overcast Overcast  
Wind Chill: 40°   Ceiling: 2900
Heat Index: 46°   Visibility: 10mi
Dew Point: 39°   Wind: 15mph
Humidity: 76%   Direction: 340°NNW
Pressure: 29.73"   Gusts: 22mph
Location:  41.63°N, 73.31°W
Report Text: KOXC 240815Z 34013G19KT 10SM FEW013 OVC029 08/04 A2973 RMK AO1
Loading
Personal Weather Stations






























Interactive Weather Map
Tropical Storm Tracking
New forecast layout! Learn more

10-Day Weather Forecast

Advertisements
Track Severe Weather on mobile